sensor_id;sensor_type;location;lat;lon;timestamp;pressure;altitude;pressure_sealevel;temperature;humidity
63556;BME280;49700;48.072;7.800;2023-03-03T00:01:22;99801.94;;;2.37;66.57
63556;BME280;49700;48.072;7.800;2023-03-03T00:03:52;99791.81;;;2.28;66.63
63556;BME280;49700;48.072;7.800;2023-03-03T00:06:18;99798.94;;;2.19;66.65
63556;BME280;49700;48.072;7.800;2023-03-03T00:08:43;99801.75;;;2.12;67.06
63556;BME280;49700;48.072;7.800;2023-03-03T00:11:09;99806.28;;;2.04;67.06
63556;BME280;49700;48.072;7.800;2023-03-03T00:13:46;99800.38;;;1.97;67.27
63556;BME280;49700;48.072;7.800;2023-03-03T00:16:22;99792.66;;;1.95;67.47
63556;BME280;49700;48.072;7.800;2023-03-03T00:18:48;99803.06;;;1.94;67.26
63556;BME280;49700;48.072;7.800;2023-03-03T00:24:14;99803.22;;;1.88;67.14
63556;BME280;49700;48.072;7.800;2023-03-03T00:26:44;99808.50;;;1.83;67.16
63556;BME280;49700;48.072;7.800;2023-03-03T00:31:53;99804.22;;;1.82;67.27
63556;BME280;49700;48.072;7.800;2023-03-03T00:34:20;99812.00;;;1.82;67.39
63556;BME280;49700;48.072;7.800;2023-03-03T00:36:52;99809.38;;;1.84;67.56
63556;BME280;49700;48.072;7.800;2023-03-03T00:39:30;99814.41;;;1.88;67.71
63556;BME280;49700;48.072;7.800;2023-03-03T00:41:59;99817.81;;;1.90;67.30
63556;BME280;49700;48.072;7.800;2023-03-03T00:47:30;99812.66;;;1.89;67.50
63556;BME280;49700;48.072;7.800;2023-03-03T00:52:39;99816.25;;;1.85;67.56
63556;BME280;49700;48.072;7.800;2023-03-03T00:55:06;99816.31;;;1.82;67.36
63556;BME280;49700;48.072;7.800;2023-03-03T00:57:32;99810.41;;;1.76;67.81
63556;BME280;49700;48.072;7.800;2023-03-03T00:59:57;99814.81;;;1.73;67.74
63556;BME280;49700;48.072;7.800;2023-03-03T01:02:23;99822.59;;;1.71;68.00
63556;BME280;49700;48.072;7.800;2023-03-03T01:04:51;99819.13;;;1.72;67.72
63556;BME280;49700;48.072;7.800;2023-03-03T01:07:16;99821.63;;;1.75;68.11
63556;BME280;49700;48.072;7.800;2023-03-03T01:09:42;99816.41;;;1.79;67.65
63556;BME280;49700;48.072;7.800;2023-03-03T01:12:09;99821.44;;;1.83;67.68
63556;BME280;49700;48.072;7.800;2023-03-03T01:14:34;99811.09;;;1.83;67.84
63556;BME280;49700;48.072;7.800;2023-03-03T01:17:00;99813.69;;;1.83;67.72
63556;BME280;49700;48.072;7.800;2023-03-03T01:19:25;99815.41;;;1.84;67.77
63556;BME280;49700;48.072;7.800;2023-03-03T01:21:51;99812.81;;;1.84;67.59
63556;BME280;49700;48.072;7.800;2023-03-03T01:24:16;99816.25;;;1.83;67.74
63556;BME280;49700;48.072;7.800;2023-03-03T01:26:42;99814.56;;;1.82;67.81
63556;BME280;49700;48.072;7.800;2023-03-03T01:29:08;99805.16;;;1.78;67.83
63556;BME280;49700;48.072;7.800;2023-03-03T01:31:34;99804.47;;;1.73;68.10
63556;BME280;49700;48.072;7.800;2023-03-03T01:33:59;99803.66;;;1.69;68.10
63556;BME280;49700;48.072;7.800;2023-03-03T01:36:26;99803.88;;;1.60;68.05
63556;BME280;49700;48.072;7.800;2023-03-03T01:38:53;99798.00;;;1.53;68.28
63556;BME280;49700;48.072;7.800;2023-03-03T01:41:18;99810.16;;;1.50;68.24
63556;BME280;49700;48.072;7.800;2023-03-03T01:43:46;99809.31;;;1.49;68.35
63556;BME280;49700;48.072;7.800;2023-03-03T01:48:45;99806.66;;;1.52;68.65
63556;BME280;49700;48.072;7.800;2023-03-03T01:51:30;99806.59;;;1.55;68.53
63556;BME280;49700;48.072;7.800;2023-03-03T01:53:59;99799.63;;;1.58;68.88
63556;BME280;49700;48.072;7.800;2023-03-03T01:56:25;99798.72;;;1.60;68.68
63556;BME280;49700;48.072;7.800;2023-03-03T01:58:54;99796.88;;;1.65;68.52
63556;BME280;49700;48.072;7.800;2023-03-03T02:01:25;99794.13;;;1.71;68.27
63556;BME280;49700;48.072;7.800;2023-03-03T02:03:52;99798.28;;;1.77;68.41
63556;BME280;49700;48.072;7.800;2023-03-03T02:06:21;99796.47;;;1.81;68.15
63556;BME280;49700;48.072;7.800;2023-03-03T02:11:21;99801.47;;;1.88;67.94
63556;BME280;49700;48.072;7.800;2023-03-03T02:13:46;99797.94;;;1.91;67.91
63556;BME280;49700;48.072;7.800;2023-03-03T02:16:12;99791.09;;;1.90;67.70
63556;BME280;49700;48.072;7.800;2023-03-03T02:18:38;99774.75;;;1.86;68.09
63556;BME280;49700;48.072;7.800;2023-03-03T02:21:15;99787.97;;;1.75;68.33
63556;BME280;49700;48.072;7.800;2023-03-03T02:26:18;99797.16;;;1.53;68.47
63556;BME280;49700;48.072;7.800;2023-03-03T02:28:48;99790.53;;;1.41;68.54
63556;BME280;49700;48.072;7.800;2023-03-03T02:31:18;99788.88;;;1.37;68.98
63556;BME280;49700;48.072;7.800;2023-03-03T02:33:48;99786.34;;;1.36;69.12
63556;BME280;49700;48.072;7.800;2023-03-03T02:36:17;99775.19;;;1.32;69.77
63556;BME280;49700;48.072;7.800;2023-03-03T02:41:51;99783.84;;;1.32;69.24
63556;BME280;49700;48.072;7.800;2023-03-03T02:44:24;99781.19;;;1.34;69.11
63556;BME280;49700;48.072;7.800;2023-03-03T02:46:54;99781.13;;;1.37;69.14
63556;BME280;49700;48.072;7.800;2023-03-03T02:49:25;99775.88;;;1.40;68.84
63556;BME280;49700;48.072;7.800;2023-03-03T02:51:52;99775.81;;;1.43;68.68
63556;BME280;49700;48.072;7.800;2023-03-03T02:54:20;99771.50;;;1.44;68.86
63556;BME280;49700;48.072;7.800;2023-03-03T02:56:46;99761.09;;;1.45;68.71
63556;BME280;49700;48.072;7.800;2023-03-03T02:59:12;99761.97;;;1.44;68.43
63556;BME280;49700;48.072;7.800;2023-03-03T03:01:42;99766.34;;;1.42;68.74
63556;BME280;49700;48.072;7.800;2023-03-03T03:04:13;99768.06;;;1.43;68.76
63556;BME280;49700;48.072;7.800;2023-03-03T03:06:42;99768.94;;;1.42;68.79
63556;BME280;49700;48.072;7.800;2023-03-03T03:09:10;99770.69;;;1.40;68.78
63556;BME280;49700;48.072;7.800;2023-03-03T03:11:36;99771.56;;;1.41;68.74
63556;BME280;49700;48.072;7.800;2023-03-03T03:14:04;99769.84;;;1.40;68.54
63556;BME280;49700;48.072;7.800;2023-03-03T03:16:31;99770.78;;;1.37;68.81
63556;BME280;49700;48.072;7.800;2023-03-03T03:18:58;99768.31;;;1.32;68.65
63556;BME280;49700;48.072;7.800;2023-03-03T03:21:24;99770.16;;;1.27;68.67
63556;BME280;49700;48.072;7.800;2023-03-03T03:23:50;99770.19;;;1.26;68.83
63556;BME280;49700;48.072;7.800;2023-03-03T03:26:15;99773.59;;;1.26;68.78
63556;BME280;49700;48.072;7.800;2023-03-03T03:28:42;99772.75;;;1.27;68.83
63556;BME280;49700;48.072;7.800;2023-03-03T03:31:08;99783.94;;;1.28;68.85
63556;BME280;49700;48.072;7.800;2023-03-03T03:33:34;99783.16;;;1.24;68.88
63556;BME280;49700;48.072;7.800;2023-03-03T03:36:00;99783.19;;;1.23;68.83
63556;BME280;49700;48.072;7.800;2023-03-03T03:38:27;99793.50;;;1.24;69.11
63556;BME280;49700;48.072;7.800;2023-03-03T03:40:54;99791.78;;;1.25;68.76
63556;BME280;49700;48.072;7.800;2023-03-03T03:43:20;99797.81;;;1.24;68.94
63556;BME280;49700;48.072;7.800;2023-03-03T03:45:46;99799.56;;;1.23;68.88
63556;BME280;49700;48.072;7.800;2023-03-03T03:48:13;99797.88;;;1.22;68.88
63556;BME280;49700;48.072;7.800;2023-03-03T03:50:39;99792.72;;;1.21;69.05
63556;BME280;49700;48.072;7.800;2023-03-03T03:53:05;99798.84;;;1.17;69.09
63556;BME280;49700;48.072;7.800;2023-03-03T03:55:31;99797.13;;;1.16;69.02
63556;BME280;49700;48.072;7.800;2023-03-03T03:57:57;99798.13;;;1.10;69.21
63556;BME280;49700;48.072;7.800;2023-03-03T04:00:23;99800.78;;;1.07;69.10
63556;BME280;49700;48.072;7.800;2023-03-03T04:02:53;99800.84;;;1.05;69.25
63556;BME280;49700;48.072;7.800;2023-03-03T04:05:19;99800.94;;;1.01;69.23
63556;BME280;49700;48.072;7.800;2023-03-03T04:07:45;99811.28;;;0.99;69.21
63556;BME280;49700;48.072;7.800;2023-03-03T04:10:11;99813.94;;;0.98;69.30
63556;BME280;49700;48.072;7.800;2023-03-03T04:12:38;99810.44;;;0.99;69.38
63556;BME280;49700;48.072;7.800;2023-03-03T04:15:08;99813.84;;;1.01;69.25
63556;BME280;49700;48.072;7.800;2023-03-03T04:17:34;99809.53;;;1.01;69.18
63556;BME280;49700;48.072;7.800;2023-03-03T04:19:59;99816.38;;;1.02;69.24
63556;BME280;49700;48.072;7.800;2023-03-03T04:22:27;99814.69;;;1.01;69.22
63556;BME280;49700;48.072;7.800;2023-03-03T04:24:52;99816.47;;;0.99;69.46
63556;BME280;49700;48.072;7.800;2023-03-03T04:27:18;99817.31;;;1.00;69.28
63556;BME280;49700;48.072;7.800;2023-03-03T04:29:43;99819.94;;;0.98;69.15
63556;BME280;49700;48.072;7.800;2023-03-03T04:32:09;99819.94;;;0.98;69.15
63556;BME280;49700;48.072;7.800;2023-03-03T04:34:35;99821.69;;;0.96;69.22
63556;BME280;49700;48.072;7.800;2023-03-03T04:37:01;99823.47;;;0.94;69.13
63556;BME280;49700;48.072;7.800;2023-03-03T04:39:28;99818.28;;;0.94;69.31
63556;BME280;49700;48.072;7.800;2023-03-03T04:41:55;99818.34;;;0.91;69.41
63556;BME280;49700;48.072;7.800;2023-03-03T04:44:21;99813.25;;;0.90;69.38
63556;BME280;49700;48.072;7.800;2023-03-03T04:46:47;99819.25;;;0.90;69.33
63556;BME280;49700;48.072;7.800;2023-03-03T04:49:13;99825.28;;;0.89;69.41
63556;BME280;49700;48.072;7.800;2023-03-03T04:51:40;99824.50;;;0.87;69.22
63556;BME280;49700;48.072;7.800;2023-03-03T04:54:05;99820.13;;;0.89;69.08
63556;BME280;49700;48.072;7.800;2023-03-03T04:56:31;99821.91;;;0.87;69.42
63556;BME280;49700;48.072;7.800;2023-03-03T04:58:57;99823.59;;;0.88;69.29
63556;BME280;49700;48.072;7.800;2023-03-03T05:01:22;99830.47;;;0.89;69.15
63556;BME280;49700;48.072;7.800;2023-03-03T05:03:48;99833.94;;;0.90;69.17
63556;BME280;49700;48.072;7.800;2023-03-03T05:06:13;99829.59;;;0.90;68.99
63556;BME280;49700;48.072;7.800;2023-03-03T05:08:39;99831.28;;;0.91;69.21
63556;BME280;49700;48.072;7.800;2023-03-03T05:11:04;99830.47;;;0.89;69.23
63556;BME280;49700;48.072;7.800;2023-03-03T05:13:30;99828.00;;;0.84;69.32
63556;BME280;49700;48.072;7.800;2023-03-03T05:15:56;99827.19;;;0.81;69.22
63556;BME280;49700;48.072;7.800;2023-03-03T05:18:23;99828.06;;;0.80;69.55
63556;BME280;49700;48.072;7.800;2023-03-03T05:20:50;99821.16;;;0.80;69.53
63556;BME280;49700;48.072;7.800;2023-03-03T05:23:17;99825.50;;;0.80;69.57
63556;BME280;49700;48.072;7.800;2023-03-03T05:25:42;99815.16;;;0.80;69.70
63556;BME280;49700;48.072;7.800;2023-03-03T05:28:09;99820.31;;;0.81;69.63
63556;BME280;49700;48.072;7.800;2023-03-03T05:30:35;99827.16;;;0.82;69.69
63556;BME280;49700;48.072;7.800;2023-03-03T05:33:01;99815.88;;;0.86;69.83
63556;BME280;49700;48.072;7.800;2023-03-03T05:35:26;99827.78;;;0.94;69.91
63556;BME280;49700;48.072;7.800;2023-03-03T05:37:53;99829.44;;;0.98;70.13
63556;BME280;49700;48.072;7.800;2023-03-03T05:40:19;99827.63;;;1.03;69.96
63556;BME280;49700;48.072;7.800;2023-03-03T05:42:44;99835.31;;;1.06;69.95
63556;BME280;49700;48.072;7.800;2023-03-03T05:45:10;99830.00;;;1.10;69.64
63556;BME280;49700;48.072;7.800;2023-03-03T05:47:36;99835.94;;;1.16;69.67
63556;BME280;49700;48.072;7.800;2023-03-03T05:50:02;99841.03;;;1.19;69.85
63556;BME280;49700;48.072;7.800;2023-03-03T05:52:27;99838.41;;;1.22;69.23
63556;BME280;49700;48.072;7.800;2023-03-03T05:54:53;99846.19;;;1.22;69.31
63556;BME280;49700;48.072;7.800;2023-03-03T05:57:18;99848.78;;;1.20;69.40
63556;BME280;49700;48.072;7.800;2023-03-03T05:59:43;99852.34;;;1.16;69.74
63556;BME280;49700;48.072;7.800;2023-03-03T06:02:09;99849.03;;;1.09;69.73
63556;BME280;49700;48.072;7.800;2023-03-03T06:04:34;99847.44;;;1.02;70.10
63556;BME280;49700;48.072;7.800;2023-03-03T06:07:00;99849.25;;;0.97;70.19
63556;BME280;49700;48.072;7.800;2023-03-03T06:09:25;99849.41;;;0.91;70.21
63556;BME280;49700;48.072;7.800;2023-03-03T06:11:51;99851.22;;;0.86;70.42
63556;BME280;49700;48.072;7.800;2023-03-03T06:14:18;99844.41;;;0.82;70.30
63556;BME280;49700;48.072;7.800;2023-03-03T06:16:46;99853.00;;;0.84;70.63
63556;BME280;49700;48.072;7.800;2023-03-03T06:19:12;99851.22;;;0.86;70.43
63556;BME280;49700;48.072;7.800;2023-03-03T06:22:21;99854.56;;;0.91;70.40
63556;BME280;49700;48.072;7.800;2023-03-03T06:24:49;99854.47;;;0.96;70.42
63556;BME280;49700;48.072;7.800;2023-03-03T06:27:20;99862.19;;;0.97;70.63
63556;BME280;49700;48.072;7.800;2023-03-03T06:30:02;99869.94;;;0.97;70.45
63556;BME280;49700;48.072;7.800;2023-03-03T06:32:31;99867.34;;;0.99;70.27
63556;BME280;49700;48.072;7.800;2023-03-03T06:34:57;99869.91;;;1.00;70.43
63556;BME280;49700;48.072;7.800;2023-03-03T06:37:34;99875.09;;;1.00;70.58
63556;BME280;49700;48.072;7.800;2023-03-03T06:40:11;99877.63;;;1.02;70.43
63556;BME280;49700;48.072;7.800;2023-03-03T06:42:40;99869.03;;;1.01;70.64
63556;BME280;49700;48.072;7.800;2023-03-03T06:45:09;99877.63;;;1.02;70.71
63556;BME280;49700;48.072;7.800;2023-03-03T06:47:35;99880.19;;;1.03;70.57
63556;BME280;49700;48.072;7.800;2023-03-03T06:50:00;99886.16;;;1.07;70.50
63556;BME280;49700;48.072;7.800;2023-03-03T06:52:26;99886.00;;;1.13;70.52
63556;BME280;49700;48.072;7.800;2023-03-03T06:54:53;99889.38;;;1.18;70.33
63556;BME280;49700;48.072;7.800;2023-03-03T06:57:25;99884.94;;;1.23;70.18
63556;BME280;49700;48.072;7.800;2023-03-03T06:59:52;99890.03;;;1.28;70.24
63556;BME280;49700;48.072;7.800;2023-03-03T07:02:20;99887.38;;;1.31;70.23
63556;BME280;49700;48.072;7.800;2023-03-03T07:04:46;99893.31;;;1.36;70.01
63556;BME280;49700;48.072;7.800;2023-03-03T07:07:17;99902.66;;;1.42;70.30
63556;BME280;49700;48.072;7.800;2023-03-03T07:09:45;99910.28;;;1.49;69.80
63556;BME280;49700;48.072;7.800;2023-03-03T07:12:18;99906.69;;;1.55;69.74
63556;BME280;49700;48.072;7.800;2023-03-03T07:17:32;99913.47;;;1.61;69.64
63556;BME280;49700;48.072;7.800;2023-03-03T07:20:00;99916.00;;;1.64;69.62
63556;BME280;49700;48.072;7.800;2023-03-03T07:22:27;99903.91;;;1.64;69.75
63556;BME280;49700;48.072;7.800;2023-03-03T07:24:57;99906.38;;;1.69;69.56
63556;BME280;49700;48.072;7.800;2023-03-03T07:27:27;99908.88;;;1.73;69.64
63556;BME280;49700;48.072;7.800;2023-03-03T07:30:46;99911.34;;;1.78;69.51
63556;BME280;49700;48.072;7.800;2023-03-03T07:32:46;99912.06;;;1.85;69.39
63556;BME280;49700;48.072;7.800;2023-03-03T07:35:29;99918.94;;;1.87;69.91
63556;BME280;49700;48.072;7.800;2023-03-03T07:37:59;99917.16;;;1.89;69.95
63556;BME280;49700;48.072;7.800;2023-03-03T07:40:38;99919.69;;;1.91;69.83
63556;BME280;49700;48.072;7.800;2023-03-03T07:43:34;99917.03;;;1.94;69.70
63556;BME280;49700;48.072;7.800;2023-03-03T07:48:36;99928.13;;;2.01;69.87
63556;BME280;49700;48.072;7.800;2023-03-03T07:51:12;99930.63;;;2.04;69.83
63556;BME280;49700;48.072;7.800;2023-03-03T07:53:40;99934.84;;;2.08;69.71
63556;BME280;49700;48.072;7.800;2023-03-03T07:56:35;99937.25;;;2.15;69.89
63556;BME280;49700;48.072;7.800;2023-03-03T07:59:13;99938.81;;;2.22;69.68
63556;BME280;49700;48.072;7.800;2023-03-03T08:01:42;99941.22;;;2.30;69.58
63556;BME280;49700;48.072;7.800;2023-03-03T08:04:23;99942.84;;;2.34;69.16
63556;BME280;49700;48.072;7.800;2023-03-03T08:06:59;99947.91;;;2.39;69.33
63556;BME280;49700;48.072;7.800;2023-03-03T08:09:29;99948.66;;;2.44;69.60
63556;BME280;49700;48.072;7.800;2023-03-03T08:12:08;99942.44;;;2.51;69.27
63556;BME280;49700;48.072;7.800;2023-03-03T08:14:37;99949.25;;;2.55;69.05
63556;BME280;49700;48.072;7.800;2023-03-03T08:17:23;99942.16;;;2.62;69.13
63556;BME280;49700;48.072;7.800;2023-03-03T08:19:50;99942.81;;;2.70;68.97
63556;BME280;49700;48.072;7.800;2023-03-03T08:24:53;99943.00;;;2.95;68.54
63556;BME280;49700;48.072;7.800;2023-03-03T08:27:18;99954.84;;;3.05;68.63
63556;BME280;49700;48.072;7.800;2023-03-03T08:29:43;99945.91;;;3.16;68.24
63556;BME280;49700;48.072;7.800;2023-03-03T08:32:09;99942.16;;;3.26;68.33
63556;BME280;49700;48.072;7.800;2023-03-03T08:34:34;99938.44;;;3.35;68.14
63556;BME280;49700;48.072;7.800;2023-03-03T08:36:59;99940.97;;;3.38;68.52
63556;BME280;49700;48.072;7.800;2023-03-03T08:39:25;99945.25;;;3.39;68.30
63556;BME280;49700;48.072;7.800;2023-03-03T08:41:50;99944.22;;;3.44;68.28
63556;BME280;49700;48.072;7.800;2023-03-03T08:44:16;99940.59;;;3.50;68.33
63556;BME280;49700;48.072;7.800;2023-03-03T08:46:41;99941.31;;;3.55;68.53
63556;BME280;49700;48.072;7.800;2023-03-03T08:49:08;99945.44;;;3.62;68.07
63556;BME280;49700;48.072;7.800;2023-03-03T08:51:33;99949.59;;;3.68;68.09
63556;BME280;49700;48.072;7.800;2023-03-03T08:53:59;99947.72;;;3.73;68.11
63556;BME280;49700;48.072;7.800;2023-03-03T08:56:24;99944.88;;;3.81;67.76
63556;BME280;49700;48.072;7.800;2023-03-03T08:58:50;99953.38;;;3.86;67.82
63556;BME280;49700;48.072;7.800;2023-03-03T09:01:15;99944.59;;;3.90;67.82
63556;BME280;49700;48.072;7.800;2023-03-03T09:03:42;99942.66;;;3.96;67.53
63556;BME280;49700;48.072;7.800;2023-03-03T09:06:07;99945.13;;;4.01;67.49
63556;BME280;49700;48.072;7.800;2023-03-03T09:08:33;99944.13;;;4.05;67.17
63556;BME280;49700;48.072;7.800;2023-03-03T09:10:58;99937.94;;;4.09;67.15
63556;BME280;49700;48.072;7.800;2023-03-03T09:13:28;99941.22;;;4.14;67.12
63556;BME280;49700;48.072;7.800;2023-03-03T09:15:55;99940.16;;;4.21;67.08
63556;BME280;49700;48.072;7.800;2023-03-03T09:18:34;99945.06;;;4.29;66.91
63556;BME280;49700;48.072;7.800;2023-03-03T09:21:00;99943.94;;;4.38;66.71
63556;BME280;49700;48.072;7.800;2023-03-03T09:25:56;99939.03;;;4.55;66.23
63556;BME280;49700;48.072;7.800;2023-03-03T09:28:30;99942.28;;;4.62;66.16
63556;BME280;49700;48.072;7.800;2023-03-03T09:31:01;99946.44;;;4.68;66.20
63556;BME280;49700;48.072;7.800;2023-03-03T09:38:48;99954.38;;;4.88;65.62
63556;BME280;49700;48.072;7.800;2023-03-03T09:50:19;99948.94;;;5.19;64.82
63556;BME280;49700;48.072;7.800;2023-03-03T09:53:30;99954.78;;;5.26;64.53
63556;BME280;49700;48.072;7.800;2023-03-03T09:56:22;99950.22;;;5.32;64.14
63556;BME280;49700;48.072;7.800;2023-03-03T10:18:00;99951.19;;;5.99;62.71
63556;BME280;49700;48.072;7.800;2023-03-03T10:28:57;99952.00;;;6.43;61.64
63556;BME280;49700;48.072;7.800;2023-03-03T10:31:33;99945.25;;;6.60;61.42
63556;BME280;49700;48.072;7.800;2023-03-03T10:51:13;99950.03;;;7.49;58.81
63556;BME280;49700;48.072;7.800;2023-03-03T10:54:07;99943.84;;;7.52;58.28
63556;BME280;49700;48.072;7.800;2023-03-03T10:59:14;99941.50;;;7.84;57.85
63556;BME280;49700;48.072;7.800;2023-03-03T11:01:48;99941.00;;;7.94;57.57
63556;BME280;49700;48.072;7.800;2023-03-03T11:07:12;99936.88;;;8.08;57.33
63556;BME280;49700;48.072;7.800;2023-03-03T11:10:04;99931.25;;;8.15;56.89
63556;BME280;49700;48.072;7.800;2023-03-03T11:12:53;99929.50;;;8.16;56.76
63556;BME280;49700;48.072;7.800;2023-03-03T11:15:49;99931.88;;;8.20;56.46
63556;BME280;49700;48.072;7.800;2023-03-03T11:18:33;99921.97;;;8.27;56.23
63556;BME280;49700;48.072;7.800;2023-03-03T11:21:08;99924.13;;;8.36;56.11
63556;BME280;49700;48.072;7.800;2023-03-03T11:24:17;99920.16;;;8.47;55.96
63556;BME280;49700;48.072;7.800;2023-03-03T11:27:31;99921.41;;;8.57;55.63
63556;BME280;49700;48.072;7.800;2023-03-03T11:33:01;99914.97;;;8.80;55.07
63556;BME280;49700;48.072;7.800;2023-03-03T11:38:14;99914.69;;;8.86;54.39
63556;BME280;49700;48.072;7.800;2023-03-03T11:40:54;99917.06;;;8.91;54.30
63556;BME280;49700;48.072;7.800;2023-03-03T11:43:26;99911.50;;;8.97;54.09
63556;BME280;49700;48.072;7.800;2023-03-03T11:45:57;99906.63;;;9.06;54.02
63556;BME280;49700;48.072;7.800;2023-03-03T11:53:40;99897.34;;;9.17;52.98
63556;BME280;49700;48.072;7.800;2023-03-03T11:56:27;99898.44;;;9.13;52.52
63556;BME280;49700;48.072;7.800;2023-03-03T11:58:59;99904.78;;;9.08;52.81
63556;BME280;49700;48.072;7.800;2023-03-03T12:01:41;99899.59;;;9.07;52.88
63556;BME280;49700;48.072;7.800;2023-03-03T12:04:26;99899.88;;;9.02;52.85
63556;BME280;49700;48.072;7.800;2023-03-03T12:12:35;99886.00;;;8.83;53.58
63556;BME280;49700;48.072;7.800;2023-03-03T12:15:21;99888.50;;;8.86;53.76
63556;BME280;49700;48.072;7.800;2023-03-03T12:20:56;99886.38;;;8.93;53.80
63556;BME280;49700;48.072;7.800;2023-03-03T12:23:45;99882.81;;;8.94;53.72
63556;BME280;49700;48.072;7.800;2023-03-03T12:26:26;99880.69;;;8.84;53.92
63556;BME280;49700;48.072;7.800;2023-03-03T12:29:51;99881.53;;;8.85;54.08
63556;BME280;49700;48.072;7.800;2023-03-03T12:31:56;99877.84;;;8.89;53.94
63556;BME280;49700;48.072;7.800;2023-03-03T12:34:35;99872.69;;;8.88;53.88
63556;BME280;49700;48.072;7.800;2023-03-03T12:42:59;99862.56;;;8.97;53.71
63556;BME280;49700;48.072;7.800;2023-03-03T12:48:08;99862.19;;;9.21;53.34
63556;BME280;49700;48.072;7.800;2023-03-03T12:50:48;99859.13;;;9.28;52.99
63556;BME280;49700;48.072;7.800;2023-03-03T12:53:44;99857.97;;;9.34;52.67
63556;BME280;49700;48.072;7.800;2023-03-03T12:56:15;99860.00;;;9.29;52.68
63556;BME280;49700;48.072;7.800;2023-03-03T13:05:04;99861.34;;;9.36;52.75
63556;BME280;49700;48.072;7.800;2023-03-03T13:07:25;99860.59;;;9.34;52.95
63556;BME280;49700;48.072;7.800;2023-03-03T13:10:23;99853.41;;;9.38;52.74
63556;BME280;49700;48.072;7.800;2023-03-03T13:13:00;99856.53;;;9.44;52.59
63556;BME280;49700;48.072;7.800;2023-03-03T13:15:34;99857.13;;;9.49;52.46
63556;BME280;49700;48.072;7.800;2023-03-03T13:18:14;99860.28;;;9.56;52.71
63556;BME280;49700;48.072;7.800;2023-03-03T13:20:52;99864.06;;;9.66;52.41
63556;BME280;49700;48.072;7.800;2023-03-03T13:25:58;99864.47;;;9.74;52.09
63556;BME280;49700;48.072;7.800;2023-03-03T13:28:33;99855.41;;;9.80;52.31
63556;BME280;49700;48.072;7.800;2023-03-03T13:31:10;99854.56;;;9.80;52.22
63556;BME280;49700;48.072;7.800;2023-03-03T13:33:36;99857.19;;;9.80;52.14
63556;BME280;49700;48.072;7.800;2023-03-03T13:36:12;99854.50;;;9.81;52.30
63556;BME280;49700;48.072;7.800;2023-03-03T13:38:41;99847.47;;;9.82;52.39
63556;BME280;49700;48.072;7.800;2023-03-03T13:52:27;99837.94;;;9.65;52.71
63556;BME280;49700;48.072;7.800;2023-03-03T13:58:09;99832.50;;;9.68;52.46
63556;BME280;49700;48.072;7.800;2023-03-03T14:06:16;99827.00;;;9.72;52.13
63556;BME280;49700;48.072;7.800;2023-03-03T14:08:55;99824.28;;;9.74;52.21
63556;BME280;49700;48.072;7.800;2023-03-03T14:14:27;99819.63;;;9.79;51.92
63556;BME280;49700;48.072;7.800;2023-03-03T14:17:07;99816.16;;;9.79;51.80
63556;BME280;49700;48.072;7.800;2023-03-03T14:19:49;99813.59;;;9.77;51.68
63556;BME280;49700;48.072;7.800;2023-03-03T14:22:44;99816.41;;;9.74;51.40
63556;BME280;49700;48.072;7.800;2023-03-03T14:25:14;99817.53;;;9.70;51.31
63556;BME280;49700;48.072;7.800;2023-03-03T14:28:09;99807.03;;;9.70;51.65
63556;BME280;49700;48.072;7.800;2023-03-03T14:30:42;99806.09;;;9.71;51.44
63556;BME280;49700;48.072;7.800;2023-03-03T14:36:20;99810.81;;;9.80;51.48
63556;BME280;49700;48.072;7.800;2023-03-03T14:38:23;99806.31;;;9.82;51.10
63556;BME280;49700;48.072;7.800;2023-03-03T14:41:03;99812.41;;;9.83;50.87
63556;BME280;49700;48.072;7.800;2023-03-03T14:48:58;99808.38;;;9.77;50.62
63556;BME280;49700;48.072;7.800;2023-03-03T14:51:30;99802.03;;;9.81;50.82
63556;BME280;49700;48.072;7.800;2023-03-03T14:53:57;99802.59;;;9.86;50.57
63556;BME280;49700;48.072;7.800;2023-03-03T14:58:51;99789.19;;;9.91;50.81
63556;BME280;49700;48.072;7.800;2023-03-03T15:01:22;99794.28;;;9.94;50.72
63556;BME280;49700;48.072;7.800;2023-03-03T15:06:38;99796.75;;;9.97;50.90
63556;BME280;49700;48.072;7.800;2023-03-03T15:11:56;99797.50;;;9.99;50.83
63556;BME280;49700;48.072;7.800;2023-03-03T15:14:29;99784.47;;;9.97;50.54
63556;BME280;49700;48.072;7.800;2023-03-03T15:17:18;99789.88;;;9.94;50.73
63556;BME280;49700;48.072;7.800;2023-03-03T15:22:54;99784.28;;;10.01;50.66
63556;BME280;49700;48.072;7.800;2023-03-03T15:25:35;99792.09;;;10.16;50.24
63556;BME280;49700;48.072;7.800;2023-03-03T15:28:26;99799.41;;;10.26;50.11
63556;BME280;49700;48.072;7.800;2023-03-03T15:36:58;99790.53;;;10.28;50.04
63556;BME280;49700;48.072;7.800;2023-03-03T15:42:20;99793.50;;;10.22;50.05
63556;BME280;49700;48.072;7.800;2023-03-03T15:45:00;99794.66;;;10.18;50.33
63556;BME280;49700;48.072;7.800;2023-03-03T15:53:48;99799.41;;;10.11;50.60
63556;BME280;49700;48.072;7.800;2023-03-03T15:56:51;99795.34;;;10.06;50.66
63556;BME280;49700;48.072;7.800;2023-03-03T16:02:14;99785.81;;;10.05;50.94
63556;BME280;49700;48.072;7.800;2023-03-03T16:04:50;99792.06;;;10.02;50.94
63556;BME280;49700;48.072;7.800;2023-03-03T16:14:53;99792.91;;;10.03;51.10
63556;BME280;49700;48.072;7.800;2023-03-03T16:17:38;99797.31;;;10.02;51.03
63556;BME280;49700;48.072;7.800;2023-03-03T16:23:15;99805.38;;;9.99;51.27
63556;BME280;49700;48.072;7.800;2023-03-03T16:39:02;99815.13;;;9.81;52.20
63556;BME280;49700;48.072;7.800;2023-03-03T16:41:46;99826.00;;;9.75;52.39
63556;BME280;49700;48.072;7.800;2023-03-03T16:44:32;99825.41;;;9.70;52.41
63556;BME280;49700;48.072;7.800;2023-03-03T16:52:47;99830.22;;;9.62;53.01
63556;BME280;49700;48.072;7.800;2023-03-03T16:55:20;99833.03;;;9.59;52.91
63556;BME280;49700;48.072;7.800;2023-03-03T16:58:27;99842.75;;;9.57;52.96
63556;BME280;49700;48.072;7.800;2023-03-03T17:03:43;99845.81;;;9.49;53.25
63556;BME280;49700;48.072;7.800;2023-03-03T17:20:29;99862.28;;;9.19;54.05
63556;BME280;49700;48.072;7.800;2023-03-03T17:31:54;99868.59;;;8.99;54.78
63556;BME280;49700;48.072;7.800;2023-03-03T17:34:47;99863.66;;;8.93;55.00
63556;BME280;49700;48.072;7.800;2023-03-03T17:37:37;99875.31;;;8.88;54.98
63556;BME280;49700;48.072;7.800;2023-03-03T17:42:56;99886.34;;;8.77;55.17
63556;BME280;49700;48.072;7.800;2023-03-03T17:45:24;99887.59;;;8.70;55.48